Toeterville, Iowa
Current Conditions -  °F | °C
As of 6:55 PM on Friday 24 Oct 2014 (Local Time) from KAUM Reporting Station
Haze Haze  
Wind Chill: 55°   Ceiling: 700
Heat Index: 55°   Visibility: 1mi
Dew Point: 55°   Wind: 0mph
Humidity: 100%   Direction: NA
Pressure: 29.9"   Gusts: NA
Location:  43.44°N, 92.89°W
Report Text: KAUM 242355Z AUTO 00000KT 1SM BR VV007 13/13 A2990 RMK AO2
Loading
Personal Weather Stations






























Interactive Weather Map
Tropical Storm Tracking
New forecast layout! Learn more

10-Day Weather Forecast

Advertisements
Track Severe Weather on mobile